Wednesday, January 17, 2018, 4:44 PM EST
Back to Local

KJHW, Jamestown, Chautauqua County/jamestown Airport

Location: Jamestown, NY, United States Lat: 42.15
Local Time: 4:44 PM EST (21:44 GMT) Lon: -79.267
Time Zone: US/Eastern Elev: 1722 ft

Show me the last for .
Show Coded

Time T Td Feel RH Dir Speed Gust Alt SLP Vis Weather Sky Remarks
2018-01-17 15:56 14 7 0 73 230° 12 - 30.26 30.38 10 SCT021 OVC030 6-hr Precip Total (4pm): 0.00"
2018-01-17 14:56 15 7 3 69 230° 10 - 30.26 30.38 10 BKN019 1-hr Precip Total: Trace
2018-01-17 13:56 14 6 2 70 240° 9 - 30.27 30.39 9 -SN BKN019 1-hr Precip Total: Trace
2018-01-17 12:56 16 7 6 66 220° 7 - 30.28 30.40 9 -SN OVC019 1-hr Precip Total: Trace
6-hr Precip Total (1pm): 0.00"
6-hr Min Temp (1pm): 1.9°F
6-hr Max Temp (1pm): 16.0°F
2018-01-17 12:29 14 5 5 66 220° 6 - 30.30 - 9 BKN021 1-hr Precip Total: Trace
2018-01-17 11:56 13 4 4 66 230° 6 - 30.32 30.45 10 CLR 1-hr Precip Total: Trace
2018-01-17 10:56 9 2 -3 72 230° 8 - 30.35 30.47 9 -SN CLR 1-hr Precip Total: Trace
2018-01-17 10:37 7 1 -7 77 210° 9 - 30.35 - 6 -SN SCT009 1-hr Precip Total: Trace
2018-01-17 10:28 7 1 -7 77 210° 9 - 30.35 - 4 -SN BKN009 1-hr Precip Total: Trace
2018-01-17 10:05 3 0 -11 84 220° 9 - 30.35 - 2 -SN BR OVC009 1-hr Precip Total: Trace
2018-01-17 09:56 4 0 -8 83 220° 7 - 30.35 30.48 3 -SN BR OVC009 1-hr Precip Total: Trace
6-hr Precip Total (10am): 0.00"
2018-01-17 09:20 3 0 -10 84 210° 8 - 30.34 - 3 -SN BR OVC009 1-hr Precip Total: Trace
2018-01-17 08:56 3 -1 -9 83 200° 7 - 30.34 30.47 1 -SN BR OVC009 Variable visibility
1-hr Precip Total: Trace
2018-01-17 08:51 3 0 -9 84 210° 7 - 30.34 - 2 -SN BR BKN009 OVC014 Variable visibility
1-hr Precip Total: Trace
2018-01-17 08:20 1 0 -12 91 220° 8 - 30.34 - 2 -SN BR OVC011 1-hr Precip Total: Trace
2018-01-17 08:09 1 0 -14 91 210° 9 - 30.33 - 2 -SN BR OVC009 1-hr Precip Total: Trace
2018-01-17 07:56 2 -1 -11 87 210° 7 - 30.33 30.47 6 -SN BR OVC009 1-hr Precip Total: Trace
2018-01-17 07:41 1 0 -12 91 220° 8 - 30.33 - 4 -SN BR BKN009 OVC048 1-hr Precip Total: Trace
2018-01-17 07:32 1 0 -12 91 220° 8 - 30.33 - 5 -SN BR SCT009 OVC048 1-hr Precip Total: Trace
2018-01-17 06:56 2 -1 -15 87 220° 12 - 30.32 30.46 7 -SN OVC046 1-hr Precip Total: Trace
6-hr Precip Total (7am): 0.00"
6-hr Min Temp (7am): 1.0°F
6-hr Max Temp (7am): 7.0°F
2018-01-17 05:56 1 -2 -15 86 220° 10 - 30.33 30.46 9 BKN050 1-hr Precip Total: Trace
2018-01-17 04:56 2 -1 -13 87 210° 9 - 30.33 30.46 9 -SN CLR 1-hr Precip Total: Trace
2018-01-17 03:56 4 0 -13 83 220° 13 - 30.33 30.45 8 -SN CLR 1-hr Precip Total: Trace
6-hr Precip Total (4am): 0.00"
2018-01-17 02:56 6 2 -9 82 230° 10 - 30.33 30.45 6 -SN BR FEW017 OVC041 1-hr Precip Total: Trace
2018-01-17 01:56 7 3 -8 83 230° 10 - 30.33 30.44 7 -SN OVC033 1-hr Precip Total: Trace
2018-01-17 01:11 7 3 -5 84 240° 7 - 30.32 - 9 -SN FEW014 SCT020 OVC031 1-hr Precip Total: Trace
2018-01-17 00:56 7 3 -2 83 210° 5 - 30.32 30.43 9 -SN BKN020 OVC029 1-hr Precip Total: Trace
6-hr Precip Total (1am): 0.00"
6-hr Min Temp (1am): 7.0°F
6-hr Max Temp (1am): 10.9°F
2018-01-16 23:56 8 3 0 79 210° 5 - 30.33 30.44 9 -SN OVC020 1-hr Precip Total: Trace
24-hr Min Temp (12am): 8.1°F
24-hr Max Temp (12am): 24.1°F
2018-01-16 22:56 8 3 -3 79 230° 7 - 30.33 30.45 9 -SN OVC018 1-hr Precip Total: Trace
2018-01-16 21:56 9 5 -5 83 270° 10 - 30.33 30.44 8 -SN OVC016 1-hr Precip Total: Trace
6-hr Precip Total (10pm): 0.00"
2018-01-16 21:22 9 7 -4 92 260° 8 - 30.33 - 9 -SN OVC016 1-hr Precip Total: Trace
2018-01-16 20:56 10 6 -1 83 280° 7 - 30.33 30.44 9 -SN OVC014 1-hr Precip Total: Trace
2018-01-16 20:18 10 7 0 84 300° 7 - 30.33 - 9 -SN BKN012 OVC021 1-hr Precip Total: Trace
2018-01-16 19:56 10 6 2 83 290° 5 - 30.32 30.44 4 -SN BR OVC021 1-hr Precip Total: Trace
2018-01-16 18:56 11 7 0 83 300° 7 - 30.31 30.42 4 -SN BR OVC015 1-hr Precip Total: Trace
6-hr Precip Total (7pm): 0.00"
6-hr Min Temp (7pm): 10.9°F
6-hr Max Temp (7pm): 24.1°F
2018-01-16 18:05 10 9 -2 92 310° 9 - 30.30 - 8 -SN BKN013 OVC044 1-hr Precip Total: Trace
2018-01-16 17:56 12 8 2 83 310° 7 - 30.29 30.41 8 -SN FEW009 BKN015 OVC044 1-hr Precip Total: Trace
2018-01-16 17:35 12 9 2 85 320° 7 - 30.29 - 5 -SN BR SCT009 OVC029 1-hr Precip Total: Trace
2018-01-16 17:22 12 9 2 85 310° 7 - 30.28 - 7 -SN BKN009 BKN018 OVC031 1-hr Precip Total: Trace
2018-01-16 17:04 14 10 1 85 310° 10 - 30.28 - 6 -SN BR SCT009 BKN019 OVC030 1-hr Precip Total: Trace
2018-01-16 16:56 14 11 0 87 310° 12 - 30.28 30.38 5 -SN BR FEW010 BKN016 OVC021 1-hr Precip Total: Trace
2018-01-16 16:46 14 10 4 85 340° 7 - 30.28 - 5 -SN BR BKN013 OVC021 1-hr Precip Total: Trace

Support USWX by starting your Amazon purchase here.